Time;durP1;ratioP1;P1;durP2;ratioP2;P2;SDS_P1;SDS_P2;PMS_P1;PMS_P2;Temp;Humidity;BMP_temperature;BMP_pressure;BME280_temperature;BME280_humidity;BME280_pressure;Samples;Min_cycle;Max_cycle;Signal;HPM_P1;HPM_P2
2023/07/13 00:02:21;;;;;;;22.20;17.00;;;;;;;18.54;100.00;97244.70;110090;1241;69073;-68
2023/07/13 00:04:52;;;;;;;22.00;17.40;;;;;;;18.51;100.00;97246.83;110103;1241;68347;-68
2023/07/13 00:07:21;;;;;;;21.40;18.10;;;;;;;18.49;100.00;97242.86;110110;1244;58880;-70
2023/07/13 00:09:50;;;;;;;24.90;19.10;;;;;;;18.47;100.00;97241.10;110141;1244;58899;-69
2023/07/13 00:12:32;;;;;;;20.10;17.10;;;;;;;18.44;100.00;97243.15;110193;1244;71142;-68
2023/07/13 00:15:13;;;;;;;17.20;14.60;;;;;;;18.43;100.00;97241.48;110151;1244;68441;-66
2023/07/13 00:17:47;;;;;;;18.40;15.90;;;;;;;18.43;100.00;97244.58;110115;1243;69300;-68
2023/07/13 00:20:21;;;;;;;20.50;16.90;;;;;;;18.43;100.00;97248.97;110121;1245;58945;-67
2023/07/13 00:22:54;;;;;;;21.30;17.70;;;;;;;18.41;100.00;97253.04;110131;1244;58890;-67
2023/07/13 00:25:29;;;;;;;17.50;15.60;;;;;;;18.40;100.00;97258.48;110119;1244;70760;-68
2023/07/13 00:28:01;;;;;;;17.80;15.90;;;;;;;18.38;100.00;97257.00;110086;1241;67939;-69
2023/07/13 00:30:33;;;;;;;17.70;15.50;;;;;;;18.38;100.00;97259.39;109780;1244;67546;-67
2023/07/13 00:33:04;;;;;;;16.60;14.80;;;;;;;18.36;100.00;97261.17;110107;1245;58958;-67
2023/07/13 00:35:48;;;;;;;18.60;16.20;;;;;;;18.35;100.00;97258.77;110099;1244;58898;-69
2023/07/13 00:38:19;;;;;;;18.70;16.20;;;;;;;18.36;100.00;97255.16;110121;1243;69626;-68
2023/07/13 00:40:52;;;;;;;19.90;16.30;;;;;;;18.35;100.00;97254.36;110111;1245;68497;-69
2023/07/13 00:43:29;;;;;;;17.50;14.80;;;;;;;18.33;100.00;97256.17;109801;1243;69349;-67
2023/07/13 00:45:59;;;;;;;19.80;17.10;;;;;;;18.30;100.00;97255.02;110140;1245;58872;-68
2023/07/13 00:48:34;;;;;;;21.30;18.50;;;;;;;18.27;100.00;97255.02;110129;1245;58965;-68
2023/07/13 00:51:04;;;;;;;18.10;16.20;;;;;;;18.23;100.00;97256.33;110075;1245;70020;-68
2023/07/13 00:53:35;;;;;;;18.40;16.00;;;;;;;18.21;100.00;97256.92;110122;1244;69242;-67
2023/07/13 00:56:06;;;;;;;18.50;16.20;;;;;;;18.19;100.00;97250.11;110094;1244;69218;-67
2023/07/13 00:58:39;;;;;;;19.60;15.60;;;;;;;18.15;100.00;97245.90;110095;1244;58945;-67
2023/07/13 01:01:12;;;;;;;15.50;13.50;;;;;;;18.14;100.00;97242.48;110127;1244;58894;-68
2023/07/13 01:03:46;;;;;;;16.50;13.30;;;;;;;18.12;100.00;97238.83;110118;1243;70610;-68
2023/07/13 01:06:17;;;;;;;17.20;14.80;;;;;;;18.10;100.00;97242.62;110108;1244;69297;-68
2023/07/13 01:08:48;;;;;;;18.70;15.00;;;;;;;18.05;100.00;97250.15;110111;1242;69289;-68
2023/07/13 01:11:22;;;;;;;18.40;15.00;;;;;;;18.02;100.00;97257.84;110077;1244;59328;-67
2023/07/13 01:13:54;;;;;;;17.70;15.80;;;;;;;17.98;100.00;97259.92;109805;1245;58873;-67
2023/07/13 01:16:28;;;;;;;19.50;16.20;;;;;;;17.94;100.00;97260.17;109845;1241;70431;-69
2023/07/13 01:19:09;;;;;;;16.80;14.00;;;;;;;17.91;100.00;97259.44;110113;1242;68627;-69
2023/07/13 01:21:42;;;;;;;16.20;14.10;;;;;;;17.89;100.00;97257.16;110120;1244;67664;-69
2023/07/13 01:24:14;;;;;;;14.70;13.20;;;;;;;17.87;100.00;97252.11;110114;1245;58881;-67
2023/07/13 01:26:45;;;;;;;14.70;13.00;;;;;;;17.86;100.00;97250.40;110132;1244;58970;-69
2023/07/13 01:29:16;;;;;;;18.60;14.60;;;;;;;17.85;100.00;97247.39;110132;1244;69894;-68
2023/07/13 01:31:48;;;;;;;16.30;13.90;;;;;;;17.83;100.00;97243.15;110070;1241;69504;-69
2023/07/13 01:34:20;;;;;;;26.10;17.50;;;;;;;17.80;100.00;97237.63;110096;1242;69330;-68
2023/07/13 01:36:53;;;;;;;24.90;17.60;;;;;;;17.77;100.00;97240.58;110137;1244;59279;-70
2023/07/13 01:39:24;;;;;;;16.40;12.90;;;;;;;17.74;100.00;97244.75;110139;1244;58844;-68
2023/07/13 01:41:55;;;;;;;29.40;14.50;;;;;;;17.72;100.00;97244.20;110112;1244;70018;-67
2023/07/13 01:44:26;;;;;;;22.20;12.90;;;;;;;17.71;100.00;97246.33;109911;1241;68596;-69
2023/07/13 01:46:59;;;;;;;19.30;12.70;;;;;;;17.69;100.00;97245.39;110040;1242;69976;-68
2023/07/13 01:49:34;;;;;;;15.30;13.10;;;;;;;17.68;100.00;97250.96;110101;1244;58941;-68
2023/07/13 01:52:13;;;;;;;17.20;14.50;;;;;;;17.66;100.00;97253.84;110098;1244;58989;-67
2023/07/13 01:54:44;;;;;;;18.30;13.50;;;;;;;17.65;100.00;97256.96;110133;1241;70436;-68
2023/07/13 01:57:15;;;;;;;21.30;16.40;;;;;;;17.66;100.00;97259.16;110108;1242;68507;-68
2023/07/13 01:59:54;;;;;;;19.00;14.40;;;;;;;17.62;100.00;97253.27;110021;1245;69369;-69
2023/07/13 02:02:25;;;;;;;14.80;12.70;;;;;;;17.59;100.00;97257.23;110097;1241;58977;-67
2023/07/13 02:04:57;;;;;;;18.20;14.30;;;;;;;17.56;100.00;97256.51;110103;1242;58878;-69
2023/07/13 02:07:27;;;;;;;20.50;14.80;;;;;;;17.54;100.00;97257.95;110078;1244;70625;-67
2023/07/13 02:09:58;;;;;;;33.70;15.60;;;;;;;17.52;100.00;97264.09;109917;1242;68330;-68
2023/07/13 02:12:28;;;;;;;24.70;15.90;;;;;;;17.51;100.00;97265.86;110079;1242;70287;-70
2023/07/13 02:14:59;;;;;;;32.20;17.40;;;;;;;17.50;100.00;97264.44;110023;1245;58895;-67
2023/07/13 02:17:29;;;;;;;23.50;15.40;;;;;;;17.52;100.00;97253.67;110087;1244;58979;-67
2023/07/13 02:20:00;;;;;;;30.60;16.50;;;;;;;17.55;100.00;97258.14;110132;1244;69834;-69
2023/07/13 02:22:30;;;;;;;32.20;17.10;;;;;;;17.57;100.00;97257.77;110123;1244;69196;-68
2023/07/13 02:25:00;;;;;;;22.10;15.00;;;;;;;17.58;100.00;97255.92;110023;1241;69261;-67
2023/07/13 02:27:30;;;;;;;15.40;13.40;;;;;;;17.58;100.00;97258.44;110121;1243;58950;-68
2023/07/13 02:30:01;;;;;;;15.80;14.00;;;;;;;17.59;100.00;97261.02;110022;1241;58831;-68
2023/07/13 02:32:31;;;;;;;16.10;14.40;;;;;;;17.60;100.00;97258.70;110114;1241;69633;-67
2023/07/13 02:35:03;;;;;;;17.20;15.10;;;;;;;17.61;100.00;97256.86;109838;1245;69262;-69
2023/07/13 02:37:35;;;;;;;19.40;16.30;;;;;;;17.61;100.00;97256.16;109908;1243;68598;-69
2023/07/13 02:40:08;;;;;;;18.80;16.80;;;;;;;17.60;100.00;97262.03;110150;1241;58826;-69
2023/07/13 02:42:40;;;;;;;18.60;15.40;;;;;;;17.61;100.00;97262.64;110146;1241;58831;-68
2023/07/13 02:45:12;;;;;;;16.80;14.60;;;;;;;17.62;100.00;97261.19;110113;1244;69513;-67
2023/07/13 02:47:42;;;;;;;18.40;15.70;;;;;;;17.62;100.00;97268.03;110117;1242;70668;-67
2023/07/13 02:50:13;;;;;;;17.90;15.80;;;;;;;17.64;100.00;97267.87;109823;1244;68451;-69
2023/07/13 02:52:44;;;;;;;21.20;18.00;;;;;;;17.68;100.00;97270.95;109927;1245;58944;-69
2023/07/13 02:55:17;;;;;;;18.90;16.20;;;;;;;17.68;100.00;97267.39;110108;1244;58872;-68
2023/07/13 02:57:50;;;;;;;15.30;13.30;;;;;;;17.68;100.00;97271.22;110100;1244;69772;-68
2023/07/13 03:00:20;;;;;;;14.80;13.30;;;;;;;17.69;100.00;97277.20;109931;1245;69276;-67
2023/07/13 03:02:52;;;;;;;15.40;13.80;;;;;;;17.68;100.00;97276.74;110087;1244;69455;-67
2023/07/13 03:05:24;;;;;;;16.00;14.40;;;;;;;17.67;100.00;97269.80;110117;1242;58918;-67
2023/07/13 03:07:54;;;;;;;14.70;13.30;;;;;;;17.63;100.00;97269.19;109874;1241;58929;-67
2023/07/13 03:10:26;;;;;;;13.30;12.00;;;;;;;17.58;100.00;97268.24;109834;1242;69868;-69
2023/07/13 03:12:58;;;;;;;13.10;11.80;;;;;;;17.55;100.00;97270.90;110148;1244;69316;-68
2023/07/13 03:15:29;;;;;;;12.40;11.20;;;;;;;17.53;100.00;97271.30;109850;1246;68425;-66
2023/07/13 03:17:59;;;;;;;11.40;10.40;;;;;;;17.52;100.00;97274.02;109784;1245;59767;-68
2023/07/13 03:20:33;;;;;;;12.30;11.10;;;;;;;17.52;100.00;97273.27;110093;1244;59685;-67
2023/07/13 03:23:04;;;;;;;12.20;11.00;;;;;;;17.55;100.00;97274.73;110097;1244;71893;-67
2023/07/13 03:25:34;;;;;;;13.90;12.50;;;;;;;17.58;100.00;97280.27;110120;1242;69909;-68
2023/07/13 03:38:50;;;;;;;13.40;12.10;;;;;;;18.03;100.00;97282.77;107340;1270;608283;-67
2023/07/13 03:41:22;;;;;;;13.10;11.90;;;;;;;18.16;100.00;97285.45;108809;1254;363835;-69
2023/07/13 03:43:52;;;;;;;12.10;10.90;;;;;;;18.21;100.00;97290.06;109116;1254;58093;-67
2023/07/13 03:46:23;;;;;;;14.00;12.50;;;;;;;18.23;100.00;97286.19;109372;1255;68293;-67
2023/07/13 03:48:53;;;;;;;13.20;12.00;;;;;;;18.26;100.00;97282.79;109177;1254;69377;-67
2023/07/13 03:51:23;;;;;;;14.00;12.60;;;;;;;18.31;100.00;97278.08;109258;1254;69620;-69
2023/07/13 03:53:54;;;;;;;14.00;12.50;;;;;;;18.36;100.00;97279.34;109338;1254;57671;-65
2023/07/13 03:56:24;;;;;;;13.40;12.10;;;;;;;18.41;100.00;97278.39;109321;1254;57633;-66
2023/07/13 03:58:54;;;;;;;13.50;12.20;;;;;;;18.43;100.00;97273.45;109429;1252;69197;-66
2023/07/13 04:01:25;;;;;;;12.90;11.70;;;;;;;18.50;100.00;97275.84;109623;1250;69319;-68
2023/07/13 04:03:56;;;;;;;13.30;11.90;;;;;;;18.54;100.00;97277.58;109435;1251;68393;-66
2023/07/13 04:06:29;;;;;;;12.50;11.30;;;;;;;18.55;100.00;97279.62;109550;1251;58142;-66
2023/07/13 04:09:00;;;;;;;12.10;10.90;;;;;;;18.56;100.00;97285.08;109367;1252;58067;-66
2023/07/13 04:11:31;;;;;;;13.50;12.20;;;;;;;18.59;100.00;97291.14;109562;1248;70329;-66
2023/07/13 04:14:02;;;;;;;11.80;10.70;;;;;;;18.64;100.00;97292.23;109488;1252;68316;-67
2023/07/13 04:16:32;;;;;;;11.80;10.60;;;;;;;18.73;100.00;97288.25;109465;1251;69322;-66
2023/07/13 04:19:02;;;;;;;12.50;11.20;;;;;;;18.79;100.00;97283.48;109523;1249;58488;-66
2023/07/13 04:21:32;;;;;;;14.70;13.20;;;;;;;18.80;100.00;97279.72;109439;1252;58206;-66
2023/07/13 04:24:03;;;;;;;13.40;12.00;;;;;;;18.85;100.00;97282.52;109548;1252;69618;-67
2023/07/13 04:26:35;;;;;;;13.80;12.50;;;;;;;18.92;100.00;97275.89;109442;1250;68463;-67
2023/07/13 04:29:06;;;;;;;14.70;13.30;;;;;;;18.99;100.00;97279.28;109360;1251;67632;-67
2023/07/13 04:31:35;;;;;;;14.20;12.70;;;;;;;19.07;100.00;97284.89;109521;1252;58086;-67
2023/07/13 04:34:05;;;;;;;14.50;13.00;;;;;;;19.06;100.00;97287.80;109561;1250;58070;-68
2023/07/13 04:36:37;;;;;;;13.90;12.30;;;;;;;19.13;100.00;97290.65;109592;1250;69754;-67
2023/07/13 04:39:08;;;;;;;13.70;12.30;;;;;;;19.21;100.00;97291.63;109525;1252;69084;-68
2023/07/13 04:41:38;;;;;;;14.30;12.80;;;;;;;19.30;100.00;97292.89;109683;1251;69777;-66
2023/07/13 04:44:07;;;;;;;13.70;12.30;;;;;;;19.39;100.00;97291.13;109400;1251;58362;-68
2023/07/13 04:46:37;;;;;;;14.70;13.20;;;;;;;19.45;100.00;97285.42;109494;1250;58081;-67
2023/07/13 04:49:07;;;;;;;13.00;11.50;;;;;;;19.60;100.00;97287.31;109444;1249;69842;-66
2023/07/13 04:51:36;;;;;;;14.10;12.70;;;;;;;19.77;100.00;97284.89;109499;1250;69891;-65
2023/07/13 04:54:07;;;;;;;16.10;14.50;;;;;;;19.94;100.00;97286.91;109366;1251;69847;-67
2023/07/13 04:56:37;;;;;;;12.80;11.60;;;;;;;20.09;100.00;97291.23;109435;1252;58070;-67
2023/07/13 04:59:07;;;;;;;14.10;12.70;;;;;;;20.18;100.00;97294.80;109581;1252;58081;-70
2023/07/13 05:01:39;;;;;;;13.60;12.20;;;;;;;20.28;100.00;97290.22;110030;1244;69156;-68
2023/07/13 05:04:09;;;;;;;12.80;11.60;;;;;;;20.47;100.00;97284.55;110052;1245;69568;-69
2023/07/13 05:06:38;;;;;;;12.50;11.30;;;;;;;20.66;100.00;97295.18;109804;1244;69738;-66
2023/07/13 05:09:07;;;;;;;;;;;;;;;20.84;100.00;97298.19;109827;1245;58091;-67
2023/07/13 05:11:37;;;;;;;13.20;11.90;;;;;;;21.09;100.00;97297.34;109823;1245;58102;-67
2023/07/13 05:14:06;;;;;;;;;;;;;;;21.40;100.00;97299.42;109833;1243;70399;-69
2023/07/13 05:16:35;;;;;;;11.60;10.50;;;;;;;21.75;100.00;97288.41;110113;1252;69835;-68
2023/07/13 05:19:05;;;;;;;11.10;9.80;;;;;;;22.16;100.00;97283.89;110028;1244;69265;-64
2023/07/13 05:21:34;;;;;;;11.50;10.30;;;;;;;22.55;100.00;97292.95;109869;1245;58138;-65
2023/07/13 05:24:03;;;;;;;11.80;10.70;;;;;;;22.99;100.00;97298.27;109837;1246;58096;-65
2023/07/13 05:26:53;;;;;;;10.90;9.80;;;;;;;23.40;100.00;97304.48;110069;1244;70240;-64
2023/07/13 05:29:22;;;;;;;11.90;10.50;;;;;;;23.87;100.00;97311.55;109915;1246;68581;-64
2023/07/13 05:31:52;;;;;;;10.00;9.10;;;;;;;24.32;100.00;97301.77;109944;1248;69321;-65
2023/07/13 05:34:22;;;;;;;9.90;9.00;;;;;;;24.65;100.00;97297.54;109839;1246;58141;-65
2023/07/13 05:36:52;;;;;;;10.40;9.40;;;;;;;24.75;100.00;97300.55;109975;1245;58131;-66
2023/07/13 05:39:21;;;;;;;11.80;10.00;;;;;;;24.75;99.88;97304.71;109996;1244;68864;-64
2023/07/13 05:41:50;;;;;;;11.70;9.90;;;;;;;24.66;97.72;97308.30;109877;1245;69207;-65
2023/07/13 05:44:20;;;;;;;10.90;9.90;;;;;;;24.56;97.71;97306.91;109993;1245;69608;-66
2023/07/13 05:46:51;;;;;;;12.60;10.40;;;;;;;24.39;97.97;97313.55;110005;1245;58064;-64
2023/07/13 05:49:20;;;;;;;9.90;8.90;;;;;;;24.38;98.83;97312.97;109878;1245;58145;-65
2023/07/13 05:51:50;;;;;;;11.00;9.90;;;;;;;24.36;98.48;97312.00;109836;1246;69243;-65
2023/07/13 05:54:20;;;;;;;10.50;9.50;;;;;;;24.33;98.73;97315.20;109833;1246;69394;-64
2023/07/13 05:56:49;;;;;;;11.60;10.50;;;;;;;24.31;99.66;97311.69;110054;1246;69279;-65
2023/07/13 05:59:19;;;;;;;10.70;9.70;;;;;;;24.33;99.87;97313.75;110032;1245;58143;-65
2023/07/13 06:01:49;;;;;;;10.80;9.80;;;;;;;24.42;99.79;97310.94;109895;1245;58057;-66
2023/07/13 06:04:20;;;;;;;11.20;10.10;;;;;;;24.45;99.71;97307.98;109898;1245;68839;-65
2023/07/13 06:06:49;;;;;;;11.30;10.00;;;;;;;24.52;99.88;97305.29;109960;1248;69868;-64
2023/07/13 06:09:18;;;;;;;10.50;9.20;;;;;;;24.59;99.93;97304.38;109990;1245;69882;-64
2023/07/13 06:11:47;;;;;;;10.60;9.50;;;;;;;24.68;98.24;97300.75;109808;1245;58071;-64
2023/07/13 06:14:16;;;;;;;11.40;10.30;;;;;;;24.74;96.94;97291.99;109834;1244;58086;-64
2023/07/13 06:16:45;;;;;;;;;;;;;;;24.79;95.41;97298.79;109853;1244;69780;-66
2023/07/13 06:19:14;;;;;;;10.40;9.20;;;;;;;24.95;95.63;97302.75;109807;1243;69223;-64
2023/07/13 06:21:43;;;;;;;9.60;8.60;;;;;;;25.23;95.36;97311.30;109776;1245;69689;-64
2023/07/13 06:24:12;;;;;;;;;;;;;;;25.56;92.28;97315.41;109877;1245;58065;-63
2023/07/13 06:26:41;;;;;;;10.20;9.20;;;;;;;25.83;91.64;97313.95;109970;1244;58061;-66
2023/07/13 06:29:10;;;;;;;;;;;;;;;26.20;89.59;97315.45;110261;1241;69754;-64
2023/07/13 06:31:39;;;;;;;8.70;7.90;;;;;;;26.58;86.05;97310.52;110215;1242;69788;-65
2023/07/13 06:34:09;;;;;;;9.10;8.00;;;;;;;26.86;84.33;97313.99;110154;1243;69054;-64
2023/07/13 06:36:38;;;;;;;11.50;9.10;;;;;;;27.09;81.19;97311.23;110139;1243;58108;-64
2023/07/13 06:39:07;;;;;;;;;;;;;;;27.40;82.16;97319.57;110202;1244;58054;-63
2023/07/13 06:41:36;;;;;;;;;;;;;;;27.70;78.31;97313.88;110170;1245;69794;-65
2023/07/13 06:44:08;;;;;;;7.70;7.00;;;;;;;27.87;75.52;97316.35;110106;1241;69228;-64
2023/07/13 06:46:37;;;;;;;;;;;;;;;28.12;75.69;97316.64;110175;1241;69186;-65
2023/07/13 06:49:09;;;;;;;8.10;6.80;;;;;;;28.36;72.89;97314.91;110204;1242;58139;-66
2023/07/13 06:51:38;;;;;;;8.00;7.20;;;;;;;28.74;71.93;97313.36;110132;1242;58018;-66
2023/07/13 06:54:07;;;;;;;9.20;8.30;;;;;;;28.90;68.36;97313.98;110315;1242;69087;-65
2023/07/13 06:56:36;;;;;;;7.70;7.10;;;;;;;29.00;69.03;97318.66;110202;1242;70249;-66
2023/07/13 06:59:05;;;;;;;8.50;7.40;;;;;;;29.16;68.97;97312.32;110192;1242;69622;-64
2023/07/13 07:01:34;;;;;;;7.50;6.80;;;;;;;29.34;68.03;97310.61;110252;1242;58137;-66
2023/07/13 07:04:05;;;;;;;7.50;6.80;;;;;;;29.56;66.65;97313.72;110358;1249;58021;-65
2023/07/13 07:06:34;;;;;;;7.70;6.90;;;;;;;29.83;66.53;97311.73;110305;1242;70001;-65
2023/07/13 07:09:03;;;;;;;;;;;;;;;30.10;65.69;97317.77;110254;1242;69841;-65
2023/07/13 07:11:32;;;;;;;7.60;6.90;;;;;;;30.18;63.96;97323.11;110219;1242;69910;-65
2023/07/13 07:14:01;;;;;;;8.50;7.10;;;;;;;30.31;62.37;97327.10;110276;1242;58041;-64
2023/07/13 07:16:30;;;;;;;8.20;7.00;;;;;;;30.33;63.98;97321.92;110236;1242;58062;-65
2023/07/13 07:18:59;;;;;;;7.80;7.00;;;;;;;30.69;63.19;97319.24;110296;1242;69768;-63
2023/07/13 07:21:28;;;;;;;8.30;7.50;;;;;;;30.56;62.91;97320.25;110204;1241;68551;-64
2023/07/13 07:23:59;;;;;;;;;;;;;;;30.26;63.17;97325.86;110147;1245;69883;-63
2023/07/13 07:26:31;;;;;;;10.30;7.90;;;;;;;30.00;63.98;97324.72;110158;1241;58128;-66
2023/07/13 07:29:12;;;;;;;8.90;7.40;;;;;;;29.42;65.35;97325.01;110132;1243;58263;-65
2023/07/13 07:31:44;;;;;;;8.50;7.60;;;;;;;29.68;65.66;97330.47;110131;1243;69603;-63
2023/07/13 07:34:31;;;;;;;8.40;7.20;;;;;;;30.45;63.38;97337.30;110277;1241;69218;-66
2023/07/13 07:37:01;;;;;;;8.00;7.10;;;;;;;30.52;61.19;97340.55;110235;1242;69256;-63
2023/07/13 07:39:33;;;;;;;7.60;6.90;;;;;;;30.21;61.32;97333.48;110247;1241;58064;-65
2023/07/13 07:42:02;;;;;;;7.90;7.10;;;;;;;30.79;61.77;97326.28;110222;1241;58136;-65
2023/07/13 07:44:32;;;;;;;8.00;7.20;;;;;;;31.36;59.49;97330.84;110213;1245;70379;-66
2023/07/13 07:47:01;;;;;;;8.10;6.90;;;;;;;31.42;58.03;97327.73;110307;1242;70315;-66
2023/07/13 07:49:31;;;;;;;8.70;7.80;;;;;;;31.61;57.80;97326.03;110255;1242;69061;-65
2023/07/13 07:52:00;;;;;;;9.20;6.80;;;;;;;31.25;58.75;97325.46;110230;1242;58940;-63
2023/07/13 07:54:29;;;;;;;8.20;7.20;;;;;;;31.05;59.74;97325.84;110249;1242;58878;-66
2023/07/13 07:57:18;;;;;;;8.00;7.20;;;;;;;31.02;58.50;97316.70;110310;1243;71543;-66
2023/07/13 08:00:08;;;;;;;8.80;7.60;;;;;;;31.21;58.85;97300.34;110240;1242;70205;-66
2023/07/13 08:02:43;;;;;;;7.90;7.20;;;;;;;31.59;58.20;97287.10;110221;1242;69857;-66
2023/07/13 08:05:15;;;;;;;8.10;7.30;;;;;;;31.85;57.70;97279.15;110197;1245;58860;-63
2023/07/13 08:07:47;;;;;;;8.70;7.90;;;;;;;31.92;56.79;97275.75;110232;1242;58945;-66
2023/07/13 08:10:17;;;;;;;8.40;7.60;;;;;;;31.91;56.27;97268.21;110197;1241;69728;-67
2023/07/13 08:12:47;;;;;;;7.60;6.90;;;;;;;32.05;56.71;97266.21;110221;1242;70014;-66
2023/07/13 08:15:20;;;;;;;8.90;7.20;;;;;;;32.22;56.30;97271.27;110313;1242;69062;-64
2023/07/13 08:17:49;;;;;;;7.20;6.50;;;;;;;32.36;55.85;97268.73;110222;1242;58943;-65
2023/07/13 08:20:18;;;;;;;7.40;6.80;;;;;;;32.79;55.81;97264.63;110306;1242;58808;-63
2023/07/13 08:22:47;;;;;;;9.60;7.70;;;;;;;33.03;55.09;97271.73;110131;1241;71546;-67
2023/07/13 08:25:16;;;;;;;8.20;7.20;;;;;;;32.91;53.22;97271.80;110156;1245;69226;-66
2023/07/13 08:27:46;;;;;;;7.50;6.60;;;;;;;32.84;53.93;97269.56;110184;1245;69990;-65
2023/07/13 08:30:16;;;;;;;8.60;7.20;;;;;;;32.73;53.69;97274.95;110253;1241;58915;-66
2023/07/13 08:32:46;;;;;;;7.40;6.60;;;;;;;32.48;53.07;97289.83;110239;1243;58927;-64
2023/07/13 08:35:16;;;;;;;7.50;6.80;;;;;;;32.33;53.84;97287.95;110217;1241;70509;-64
2023/07/13 08:37:46;;;;;;;6.80;6.20;;;;;;;32.16;53.88;97292.08;110395;1241;69304;-65
2023/07/13 08:40:16;;;;;;;9.00;6.80;;;;;;;32.03;54.11;97298.41;110350;1242;68985;-66
2023/07/13 08:42:59;;;;;;;7.70;6.80;;;;;;;31.93;54.52;97304.55;110188;1243;58874;-65
2023/07/13 08:45:31;;;;;;;;;;;;;;;31.67;55.62;97310.62;110184;1241;59267;-66
2023/07/13 08:48:25;;;;;;;7.40;6.70;;;;;;;31.58;55.30;97309.66;110225;1242;70629;-65
2023/07/13 08:51:02;;;;;;;7.50;6.70;;;;;;;31.31;55.94;97307.27;110166;1242;69818;-65
2023/07/13 08:53:43;;;;;;;7.70;6.90;;;;;;;31.14;55.34;97307.84;110259;1242;69072;-66
2023/07/13 08:56:24;;;;;;;8.40;7.60;;;;;;;30.83;54.86;97298.46;110247;1243;58862;-66
2023/07/13 08:59:13;;;;;;;9.20;7.20;;;;;;;30.65;56.10;97285.24;110212;1246;58943;-65
2023/07/13 09:02:10;;;;;;;13.40;7.80;;;;;;;30.57;56.37;97287.67;110221;1242;70936;-65
2023/07/13 09:04:50;;;;;;;7.40;6.60;;;;;;;30.65;56.91;97292.08;110271;1244;69931;-65
2023/07/13 09:07:41;;;;;;;7.70;6.90;;;;;;;31.15;56.41;97289.95;110141;1245;68704;-65
2023/07/13 09:10:34;;;;;;;8.10;6.60;;;;;;;31.64;55.47;97311.88;110192;1241;58886;-66
2023/07/13 09:13:20;;;;;;;8.10;7.30;;;;;;;32.01;53.86;97314.08;110273;1243;58895;-67
2023/07/13 09:15:50;;;;;;;6.90;6.20;;;;;;;32.33;51.60;97325.08;110226;1242;71124;-65
2023/07/13 09:18:27;;;;;;;7.10;6.00;;;;;;;32.57;50.32;97323.14;110326;1242;70530;-66
2023/07/13 09:21:03;;;;;;;7.50;6.80;;;;;;;32.76;49.94;97319.27;110212;1241;69041;-66
2023/07/13 09:23:35;;;;;;;8.80;7.50;;;;;;;32.53;50.03;97317.40;110181;1245;58897;-66
2023/07/13 09:26:12;;;;;;;7.00;6.20;;;;;;;32.60;51.28;97306.55;110205;1241;58892;-65
2023/07/13 09:28:45;;;;;;;8.30;7.20;;;;;;;32.91;49.04;97298.10;109967;1245;70457;-65
2023/07/13 09:31:21;;;;;;;10.30;7.50;;;;;;;32.74;49.42;97290.83;110171;1240;69528;-67
2023/07/13 09:33:51;;;;;;;7.90;6.70;;;;;;;33.23;49.04;97294.09;110149;1245;69314;-65
2023/07/13 09:36:26;;;;;;;7.70;7.00;;;;;;;33.45;48.19;97292.55;110218;1246;58998;-65
2023/07/13 09:39:13;;;;;;;8.10;7.40;;;;;;;33.16;48.40;97298.47;110222;1244;58922;-65
2023/07/13 09:41:57;;;;;;;8.20;7.10;;;;;;;32.42;49.62;97302.46;110282;1242;69817;-66
2023/07/13 09:44:35;;;;;;;8.60;7.80;;;;;;;31.97;51.26;97295.54;110237;1245;69265;-66
2023/07/13 09:47:17;;;;;;;7.60;6.80;;;;;;;31.81;51.28;97294.81;110197;1244;68419;-65
2023/07/13 09:49:47;;;;;;;8.90;7.00;;;;;;;31.55;54.19;97300.89;109856;1247;59356;-65
2023/07/13 09:52:16;;;;;;;7.00;6.30;;;;;;;31.52;54.95;97305.01;110154;1245;58835;-65
2023/07/13 09:54:58;;;;;;;7.30;6.60;;;;;;;31.62;55.30;97323.02;110139;1246;70658;-66
2023/07/13 09:57:28;;;;;;;7.40;6.70;;;;;;;31.59;56.62;97340.81;109739;1241;68634;-66
2023/07/13 10:00:27;;;;;;;7.30;6.60;;;;;;;31.29;59.84;97347.57;110115;1250;69409;-65
2023/07/13 10:03:04;;;;;;;;;;;;;;;31.01;60.39;97342.05;110153;1243;58876;-66
2023/07/13 10:05:42;;;;;;;6.90;6.10;;;;;;;30.91;60.57;97340.11;110197;1241;58895;-66
2023/07/13 10:08:21;;;;;;;7.80;7.00;;;;;;;31.03;59.16;97326.27;110166;1241;70894;-65
2023/07/13 10:10:59;;;;;;;9.30;7.60;;;;;;;31.06;58.76;97327.85;110241;1242;69717;-65
2023/07/13 10:13:56;;;;;;;8.20;7.40;;;;;;;31.05;58.95;97327.18;110171;1242;69964;-65
2023/07/13 10:16:32;;;;;;;8.20;7.30;;;;;;;30.44;62.26;97326.16;110129;1252;58943;-65
2023/07/13 10:19:10;;;;;;;8.40;6.70;;;;;;;30.29;62.78;97312.34;110298;1245;58892;-65
2023/07/13 10:22:05;;;;;;;8.30;7.50;;;;;;;30.21;64.63;97312.29;110242;1242;71173;-65
2023/07/13 10:24:38;;;;;;;9.50;8.60;;;;;;;30.11;65.01;97322.30;110160;1245;69232;-64
2023/07/13 10:27:16;;;;;;;8.30;7.30;;;;;;;29.81;65.60;97327.60;110188;1241;68319;-64
2023/07/13 10:29:55;;;;;;;9.30;8.40;;;;;;;29.87;66.11;97331.27;110193;1241;58963;-66
2023/07/13 10:32:24;;;;;;;10.60;9.00;;;;;;;29.81;67.32;97319.56;110207;1240;58885;-69
2023/07/13 10:34:56;;;;;;;9.00;8.00;;;;;;;29.79;68.20;97307.24;110193;1243;70527;-64
2023/07/13 10:37:29;;;;;;;13.10;8.20;;;;;;;29.99;69.24;97297.95;110205;1242;69818;-65
2023/07/13 10:40:00;;;;;;;10.00;8.90;;;;;;;30.20;69.53;97297.76;110226;1248;69294;-64
2023/07/13 10:42:37;;;;;;;9.30;8.40;;;;;;;30.36;67.41;97291.40;110244;1242;58942;-65
2023/07/13 10:45:20;;;;;;;8.70;7.90;;;;;;;30.45;67.46;97291.71;110267;1243;58947;-65
2023/07/13 10:47:55;;;;;;;8.10;7.30;;;;;;;30.64;66.10;97284.14;110191;1243;71138;-66
2023/07/13 10:50:28;;;;;;;7.90;7.10;;;;;;;30.99;65.82;97280.55;110204;1242;69859;-66
2023/07/13 10:53:19;;;;;;;7.90;7.00;;;;;;;31.23;64.62;97280.31;110195;1241;70352;-65
2023/07/13 10:55:48;;;;;;;7.70;6.30;;;;;;;31.62;61.42;97285.42;110185;1242;58950;-65
2023/07/13 10:58:43;;;;;;;6.60;5.90;;;;;;;32.10;60.52;97287.52;110174;1241;58886;-66
2023/07/13 11:01:16;;;;;;;7.10;5.90;;;;;;;32.45;59.03;97285.34;110183;1243;70567;-65
2023/07/13 11:03:59;;;;;;;7.60;6.80;;;;;;;32.48;58.79;97286.95;110219;1241;69834;-65
2023/07/13 11:06:29;;;;;;;8.60;6.30;;;;;;;32.61;58.69;97279.52;110223;1241;69366;-65
2023/07/13 11:09:17;;;;;;;8.50;6.90;;;;;;;32.81;56.77;97279.91;110191;1243;58934;-66
2023/07/13 11:11:46;;;;;;;;;;;;;;;33.00;56.51;97271.48;110226;1242;58870;-65
2023/07/13 11:14:38;;;;;;;7.90;7.20;;;;;;;33.07;57.95;97271.33;110221;1243;70548;-64
2023/07/13 11:17:49;;;;;;;7.10;6.50;;;;;;;33.24;54.69;97263.60;110194;1240;68706;-64
2023/07/13 11:20:20;;;;;;;8.10;7.40;;;;;;;33.18;56.09;97258.58;109555;1252;69880;-65
2023/07/13 11:22:53;;;;;;;7.10;6.40;;;;;;;33.18;55.93;97256.52;110060;1242;58995;-64
2023/07/13 11:25:29;;;;;;;7.10;6.40;;;;;;;33.09;56.58;97253.86;110162;1244;58889;-65
2023/07/13 11:28:18;;;;;;;8.30;6.70;;;;;;;33.09;56.07;97244.70;110139;1242;70876;-64
2023/07/13 11:30:55;;;;;;;8.90;6.90;;;;;;;33.17;56.89;97241.51;110208;1242;69933;-64
2023/07/13 11:33:48;;;;;;;8.10;6.50;;;;;;;33.24;53.88;97234.68;110179;1243;69305;-64
2023/07/13 11:36:24;;;;;;;7.40;6.50;;;;;;;32.89;56.06;97218.48;110066;1245;58943;-65
2023/07/13 11:39:06;;;;;;;8.80;6.80;;;;;;;32.77;57.16;97215.79;110142;1244;58893;-65
2023/07/13 11:41:45;;;;;;;7.20;6.20;;;;;;;32.87;58.30;97213.29;110118;1245;69831;-66
2023/07/13 11:44:19;;;;;;;6.60;5.80;;;;;;;33.02;56.61;97215.73;110144;1241;69138;-65
2023/07/13 11:46:51;;;;;;;6.00;5.20;;;;;;;33.06;57.43;97213.17;110116;1246;68361;-64
2023/07/13 11:49:26;;;;;;;6.20;5.20;;;;;;;33.22;56.50;97205.05;110120;1247;58954;-64
2023/07/13 11:51:57;;;;;;;6.80;5.20;;;;;;;33.28;54.70;97188.77;110143;1244;59302;-66
2023/07/13 11:54:30;;;;;;;6.70;5.10;;;;;;;33.32;53.96;97180.30;110162;1243;70604;-65
2023/07/13 11:57:23;;;;;;;5.30;4.80;;;;;;;33.29;54.05;97174.52;110204;1245;69380;-64